createdAt,value
2023-07-24T00:02:18.623Z,6.03
2023-07-24T00:04:45.458Z,5.60
2023-07-24T00:07:12.168Z,6.03
2023-07-24T00:09:38.853Z,6.35
2023-07-24T00:12:05.946Z,6.65
2023-07-24T00:14:32.621Z,9.00
2023-07-24T00:16:59.330Z,6.47
2023-07-24T00:19:25.990Z,5.63
2023-07-24T00:21:52.747Z,7.10
2023-07-24T00:24:19.580Z,6.18
2023-07-24T00:26:46.229Z,7.25
2023-07-24T00:29:13.006Z,6.05
2023-07-24T00:31:39.674Z,6.75
2023-07-24T00:34:06.323Z,6.05
2023-07-24T00:36:33.115Z,7.15
2023-07-24T00:38:59.900Z,6.45
2023-07-24T00:41:26.570Z,6.28
2023-07-24T00:43:53.219Z,6.53
2023-07-24T00:46:19.908Z,7.55
2023-07-24T00:48:46.530Z,6.35
2023-07-24T00:51:13.234Z,6.05
2023-07-24T00:53:40.107Z,7.75
2023-07-24T00:56:06.720Z,7.13
2023-07-24T00:58:34.398Z,6.40
2023-07-24T01:01:01.196Z,8.82
2023-07-24T01:03:35.448Z,6.30
2023-07-24T01:06:05.266Z,7.45
2023-07-24T01:08:31.955Z,5.70
2023-07-24T01:11:00.620Z,5.15
2023-07-24T01:13:27.278Z,5.72
2023-07-24T01:16:04.278Z,6.63
2023-07-24T01:18:31.450Z,6.18
2023-07-24T01:20:58.571Z,6.05
2023-07-24T01:23:44.068Z,6.47
2023-07-24T01:26:10.751Z,6.18
2023-07-24T01:28:37.512Z,4.78
2023-07-24T01:31:04.351Z,8.38
2023-07-24T01:33:32.886Z,6.22
2023-07-24T01:36:00.328Z,5.60
2023-07-24T01:38:26.975Z,5.80
2023-07-24T01:40:56.666Z,6.28
2023-07-24T01:43:23.398Z,8.20
2023-07-24T01:45:50.292Z,7.85
2023-07-24T01:48:17.332Z,7.68
2023-07-24T01:50:44.048Z,12.30
2023-07-24T01:53:11.100Z,6.50
2023-07-24T01:55:37.773Z,7.28
2023-07-24T01:58:04.439Z,7.15
2023-07-24T02:00:31.080Z,6.22
2023-07-24T02:02:57.892Z,5.07
2023-07-24T02:05:24.656Z,5.38
2023-07-24T02:07:51.370Z,5.22
2023-07-24T02:10:18.097Z,5.93
2023-07-24T02:12:46.052Z,5.63
2023-07-24T02:15:12.709Z,5.13
2023-07-24T02:17:40.124Z,5.40
2023-07-24T02:20:07.361Z,5.00
2023-07-24T02:22:34.047Z,6.45
2023-07-24T02:25:00.926Z,5.43
2023-07-24T02:27:28.840Z,5.25
2023-07-24T02:29:58.291Z,4.97
2023-07-24T02:32:24.985Z,6.10
2023-07-24T02:34:52.151Z,7.28
2023-07-24T02:37:19.024Z,6.28
2023-07-24T02:39:45.969Z,7.65
2023-07-24T02:42:12.722Z,6.53
2023-07-24T02:44:39.421Z,6.32
2023-07-24T02:47:06.140Z,7.15
2023-07-24T02:49:33.087Z,5.32
2023-07-24T02:51:59.750Z,6.07
2023-07-24T02:54:27.469Z,8.98
2023-07-24T02:56:54.244Z,6.07
2023-07-24T02:59:20.940Z,5.05
2023-07-24T03:01:47.637Z,9.70
2023-07-24T03:04:14.330Z,6.30
2023-07-24T03:06:41.402Z,8.90
2023-07-24T03:09:08.225Z,6.40
2023-07-24T03:11:34.885Z,6.28
2023-07-24T03:14:01.596Z,5.68
2023-07-24T03:16:28.568Z,4.80
2023-07-24T03:18:55.536Z,6.95
2023-07-24T03:21:22.200Z,6.18
2023-07-24T03:23:48.832Z,7.85
2023-07-24T03:26:15.566Z,7.85
2023-07-24T03:28:42.375Z,5.18
2023-07-24T03:31:09.176Z,5.50
2023-07-24T03:33:36.242Z,5.72
2023-07-24T03:36:02.887Z,5.28
2023-07-24T03:38:29.563Z,4.22
2023-07-24T03:40:56.255Z,6.13
2023-07-24T03:43:23.142Z,6.50
2023-07-24T03:45:49.855Z,5.95
2023-07-24T03:48:16.520Z,6.40
2023-07-24T03:50:43.169Z,15.20
2023-07-24T03:53:09.915Z,6.93
2023-07-24T03:55:36.877Z,8.85
2023-07-24T03:58:03.643Z,6.70
2023-07-24T04:00:30.297Z,5.93
2023-07-24T04:02:57.082Z,6.13
2023-07-24T04:05:23.768Z,5.63
2023-07-24T04:07:50.656Z,5.85
2023-07-24T04:10:17.398Z,5.47
2023-07-24T04:12:44.063Z,5.80
2023-07-24T04:15:10.854Z,6.40
2023-07-24T04:17:37.554Z,6.50
2023-07-24T04:20:04.997Z,6.90
2023-07-24T04:22:31.655Z,8.70
2023-07-24T04:24:58.288Z,6.05
2023-07-24T04:27:24.951Z,7.53
2023-07-24T04:29:51.593Z,7.05
2023-07-24T04:32:18.284Z,7.32
2023-07-24T04:34:44.986Z,7.35
2023-07-24T04:37:11.602Z,6.88
2023-07-24T04:39:41.346Z,6.85
2023-07-24T04:42:08.099Z,6.60
2023-07-24T04:44:34.737Z,6.97
2023-07-24T04:47:02.906Z,8.48
2023-07-24T04:49:31.073Z,5.15
2023-07-24T04:51:57.724Z,6.53
2023-07-24T04:54:24.423Z,6.70
2023-07-24T04:56:51.205Z,6.20
2023-07-24T04:59:18.027Z,5.60
2023-07-24T05:01:52.042Z,7.03
2023-07-24T05:04:19.773Z,6.85
2023-07-24T05:06:46.475Z,6.65
2023-07-24T05:09:13.192Z,11.35
2023-07-24T05:11:40.388Z,30.02
2023-07-24T05:14:07.082Z,5.72
2023-07-24T05:16:33.995Z,5.22
2023-07-24T05:19:00.948Z,7.78
2023-07-24T05:21:27.620Z,7.28
2023-07-24T05:23:54.265Z,6.22
2023-07-24T05:26:21.000Z,6.82
2023-07-24T05:28:47.650Z,7.53
2023-07-24T05:31:14.677Z,7.85
2023-07-24T05:33:41.417Z,8.10
2023-07-24T05:36:08.104Z,6.65
2023-07-24T05:38:34.766Z,5.25
2023-07-24T05:41:03.048Z,4.97
2023-07-24T05:43:29.999Z,6.03
2023-07-24T05:45:57.516Z,14.10
2023-07-24T05:48:24.347Z,8.95
2023-07-24T05:50:51.022Z,14.98
2023-07-24T05:53:18.068Z,11.45
2023-07-24T05:55:44.804Z,9.65
2023-07-24T05:58:11.502Z,8.77
2023-07-24T06:00:38.227Z,7.30
2023-07-24T06:03:07.834Z,6.75
2023-07-24T06:05:35.124Z,5.75
2023-07-24T06:08:01.759Z,5.40
2023-07-24T06:10:28.407Z,5.22
2023-07-24T06:12:55.076Z,7.65
2023-07-24T06:15:22.014Z,5.93
2023-07-24T06:17:50.907Z,6.55
2023-07-24T06:20:19.140Z,5.10
2023-07-24T06:22:45.976Z,5.35
2023-07-24T06:25:12.694Z,5.20
2023-07-24T06:27:39.438Z,5.70
2023-07-24T06:30:15.295Z,5.07
2023-07-24T06:32:42.865Z,5.65
2023-07-24T06:35:09.691Z,8.52
2023-07-24T06:37:36.383Z,5.32
2023-07-24T06:40:03.418Z,5.30
2023-07-24T06:42:30.079Z,6.70
2023-07-24T06:44:56.763Z,9.27
2023-07-24T06:47:23.439Z,5.93
2023-07-24T06:49:50.164Z,4.90
2023-07-24T06:52:16.817Z,5.95
2023-07-24T06:54:43.461Z,6.28
2023-07-24T06:57:10.678Z,7.22
2023-07-24T06:59:37.889Z,6.32
2023-07-24T07:02:04.870Z,5.40
2023-07-24T07:04:31.548Z,4.75
2023-07-24T07:06:58.239Z,5.95
2023-07-24T07:09:24.969Z,5.00
2023-07-24T07:11:51.673Z,5.35
2023-07-24T07:14:18.330Z,6.00
2023-07-24T07:16:45.674Z,6.70
2023-07-24T07:19:12.482Z,6.38
2023-07-24T07:21:39.133Z,7.18
2023-07-24T07:24:06.158Z,6.30
2023-07-24T07:26:32.976Z,6.95
2023-07-24T07:28:59.993Z,7.55
2023-07-24T07:31:26.755Z,7.18
2023-07-24T07:33:53.410Z,7.63
2023-07-24T07:36:20.071Z,8.52
2023-07-24T07:38:46.872Z,6.90
2023-07-24T07:41:13.636Z,6.72
2023-07-24T07:43:40.437Z,7.75
2023-07-24T07:46:07.128Z,6.72
2023-07-24T07:48:34.170Z,6.80
2023-07-24T07:51:00.838Z,7.75
2023-07-24T07:53:27.755Z,9.23
2023-07-24T07:55:58.331Z,7.00
2023-07-24T07:58:25.316Z,8.00
2023-07-24T08:00:52.072Z,7.93
2023-07-24T08:03:19.185Z,9.23
2023-07-24T08:05:45.984Z,8.25
2023-07-24T08:08:12.661Z,7.97
2023-07-24T08:10:39.852Z,8.02
2023-07-24T08:13:06.776Z,7.30
2023-07-24T08:15:37.387Z,9.52
2023-07-24T08:18:07.219Z,9.57
2023-07-24T08:20:36.058Z,8.60
2023-07-24T08:23:02.743Z,12.82
2023-07-24T08:25:29.442Z,8.63
2023-07-24T08:28:05.410Z,6.72
2023-07-24T08:30:33.363Z,7.13
2023-07-24T08:33:00.583Z,7.90
2023-07-24T08:35:27.463Z,7.80
2023-07-24T08:37:54.247Z,7.63
2023-07-24T08:40:21.351Z,7.72
2023-07-24T08:42:50.269Z,7.35
2023-07-24T08:45:17.175Z,9.10
2023-07-24T08:47:47.508Z,7.82
2023-07-24T08:50:16.021Z,7.82
2023-07-24T08:52:44.086Z,9.15
2023-07-24T08:55:10.863Z,6.90
2023-07-24T08:57:42.819Z,9.98
2023-07-24T09:00:10.019Z,7.68
2023-07-24T09:02:36.960Z,8.07
2023-07-24T09:05:04.998Z,8.05
2023-07-24T09:07:32.440Z,9.10
2023-07-24T09:09:59.309Z,7.30
2023-07-24T09:12:26.027Z,7.72
2023-07-24T09:15:06.682Z,7.15
2023-07-24T09:17:33.807Z,7.32
2023-07-24T09:20:01.326Z,7.88
2023-07-24T09:22:28.168Z,8.27
2023-07-24T09:24:56.416Z,9.00
2023-07-24T09:27:26.534Z,7.45
2023-07-24T09:29:53.357Z,10.98
2023-07-24T09:32:24.018Z,7.70
2023-07-24T09:34:57.518Z,7.00
2023-07-24T09:37:28.528Z,7.97
2023-07-24T09:39:55.295Z,7.63
2023-07-24T09:42:36.008Z,8.75
2023-07-24T09:47:55.123Z,9.10
2023-07-24T09:50:19.918Z,10.63
2023-07-24T09:52:46.618Z,8.48
2023-07-24T09:55:16.852Z,8.43
2023-07-24T09:57:43.629Z,8.07
2023-07-24T10:00:10.993Z,11.38
2023-07-24T10:02:37.710Z,7.65
2023-07-24T10:05:04.600Z,7.93
2023-07-24T10:07:31.290Z,8.90
2023-07-24T10:09:57.942Z,8.65
2023-07-24T10:12:24.675Z,8.15
2023-07-24T10:14:51.368Z,7.97
2023-07-24T10:17:46.083Z,8.75
2023-07-24T10:22:43.311Z,9.30
2023-07-24T10:25:10.960Z,8.88
2023-07-24T10:27:42.775Z,9.68
2023-07-24T10:30:19.255Z,9.30
2023-07-24T10:32:56.262Z,10.90
2023-07-24T10:35:24.254Z,9.00
2023-07-24T10:38:00.160Z,9.05
2023-07-24T10:40:26.907Z,9.35
2023-07-24T10:43:10.048Z,9.05
2023-07-24T10:48:18.869Z,7.80
2023-07-24T10:50:50.080Z,8.38
2023-07-24T10:53:20.461Z,10.35
2023-07-24T10:55:52.100Z,11.77
2023-07-24T10:58:18.823Z,8.13
2023-07-24T11:00:45.670Z,8.73
2023-07-24T11:03:12.887Z,10.40
2023-07-24T11:05:43.465Z,10.05
2023-07-24T11:08:16.762Z,10.00
2023-07-24T11:10:48.100Z,9.43
2023-07-24T11:13:15.693Z,9.73
2023-07-24T11:15:42.484Z,10.43
2023-07-24T11:18:09.629Z,9.02
2023-07-24T11:20:40.255Z,9.30
2023-07-24T11:23:07.138Z,9.35
2023-07-24T11:25:34.090Z,12.95
2023-07-24T11:28:00.965Z,10.90
2023-07-24T11:30:27.782Z,9.68
2023-07-24T11:32:54.508Z,7.72
2023-07-24T11:35:22.691Z,8.07
2023-07-24T11:37:49.364Z,8.35
2023-07-24T11:40:16.848Z,8.27
2023-07-24T11:42:44.924Z,8.43
2023-07-24T11:45:11.806Z,9.02
2023-07-24T11:47:49.920Z,9.80
2023-07-24T11:50:17.298Z,8.25
2023-07-24T11:52:50.245Z,8.75
2023-07-24T11:55:35.468Z,9.07
2023-07-24T11:58:02.687Z,10.10
2023-07-24T12:00:29.507Z,8.32
2023-07-24T12:03:02.888Z,9.10
2023-07-24T12:05:29.739Z,8.85
2023-07-24T12:07:56.636Z,8.65
2023-07-24T12:10:28.915Z,11.52
2023-07-24T12:12:56.151Z,8.98
2023-07-24T12:15:23.041Z,9.18
2023-07-24T12:17:49.722Z,8.85
2023-07-24T12:20:16.505Z,8.52
2023-07-24T12:22:43.243Z,9.02
2023-07-24T12:25:10.056Z,9.18
2023-07-24T12:27:36.933Z,8.07
2023-07-24T12:30:04.184Z,8.95
2023-07-24T12:32:30.845Z,10.25
2023-07-24T12:34:57.568Z,8.73
2023-07-24T12:37:24.203Z,10.45
2023-07-24T12:39:50.874Z,10.90
2023-07-24T12:42:17.502Z,9.93
2023-07-24T12:44:44.471Z,12.20
2023-07-24T12:47:11.914Z,11.65
2023-07-24T12:49:38.751Z,9.57
2023-07-24T12:52:06.158Z,12.48
2023-07-24T12:54:37.245Z,9.85
2023-07-24T12:57:13.354Z,10.18
2023-07-24T12:59:40.125Z,10.40
2023-07-24T13:02:07.749Z,10.40
2023-07-24T13:04:34.412Z,10.65
2023-07-24T13:07:01.487Z,12.82
2023-07-24T13:09:28.800Z,11.80
2023-07-24T13:11:55.692Z,9.90
2023-07-24T13:14:22.519Z,10.73
2023-07-24T13:16:49.275Z,10.25
2023-07-24T13:19:20.449Z,10.63
2023-07-24T13:21:48.269Z,12.13
2023-07-24T13:24:15.318Z,14.43
2023-07-24T13:26:42.097Z,12.25
2023-07-24T13:29:08.842Z,10.65
2023-07-24T13:31:36.246Z,10.32
2023-07-24T13:34:03.446Z,11.38
2023-07-24T13:36:30.405Z,9.88
2023-07-24T13:39:00.827Z,10.38
2023-07-24T13:41:27.516Z,9.52
2023-07-24T13:43:55.510Z,9.07
2023-07-24T13:46:23.490Z,10.98
2023-07-24T13:48:50.190Z,12.00
2023-07-24T13:51:16.862Z,12.40
2023-07-24T13:53:43.553Z,10.85
2023-07-24T13:56:10.867Z,10.35
2023-07-24T13:58:37.674Z,12.02
2023-07-24T14:01:04.362Z,10.98
2023-07-24T14:03:31.162Z,11.95
2023-07-24T14:05:58.944Z,11.45
2023-07-24T14:08:26.008Z,9.85
2023-07-24T14:10:52.739Z,12.05
2023-07-24T14:13:23.594Z,12.60
2023-07-24T14:15:50.455Z,14.20
2023-07-24T14:18:17.363Z,11.95
2023-07-24T14:20:44.241Z,10.32
2023-07-24T14:23:11.011Z,10.05
2023-07-24T14:25:37.697Z,11.52
2023-07-24T14:28:04.659Z,10.45
2023-07-24T14:30:31.322Z,12.23
2023-07-24T14:32:58.008Z,10.35
2023-07-24T14:35:24.825Z,11.60
2023-07-24T14:37:51.532Z,10.27
2023-07-24T14:40:18.334Z,12.38
2023-07-24T14:42:45.069Z,9.65
2023-07-24T14:45:11.800Z,10.20
2023-07-24T14:47:38.520Z,11.98
2023-07-24T14:50:05.767Z,12.18
2023-07-24T14:52:32.444Z,11.70
2023-07-24T14:54:59.091Z,14.93
2023-07-24T14:57:26.440Z,11.80
2023-07-24T14:59:53.798Z,10.65
2023-07-24T15:02:20.577Z,13.15
2023-07-24T15:04:47.302Z,13.40
2023-07-24T15:07:13.978Z,12.07
2023-07-24T15:09:40.694Z,10.40
2023-07-24T15:12:07.708Z,11.27
2023-07-24T15:14:34.464Z,11.25
2023-07-24T15:17:01.128Z,13.18
2023-07-24T15:19:27.906Z,12.23
2023-07-24T15:21:54.602Z,11.57
2023-07-24T15:24:21.260Z,15.73
2023-07-24T15:26:48.224Z,10.68
2023-07-24T15:29:19.674Z,10.77
2023-07-24T15:31:46.919Z,12.90
2023-07-24T15:34:13.733Z,11.27
2023-07-24T15:36:40.433Z,12.23
2023-07-24T15:39:07.159Z,11.88
2023-07-24T15:41:34.011Z,12.45
2023-07-24T15:44:00.776Z,13.15
2023-07-24T15:46:30.150Z,10.93
2023-07-24T15:48:57.532Z,11.23
2023-07-24T15:51:24.839Z,13.77
2023-07-24T15:53:51.503Z,11.35
2023-07-24T15:56:18.180Z,12.57
2023-07-24T15:58:44.858Z,12.32
2023-07-24T16:01:11.938Z,11.85
2023-07-24T16:03:38.891Z,12.90
2023-07-24T16:06:06.342Z,11.73
2023-07-24T16:08:33.063Z,13.70
2023-07-24T16:10:59.747Z,12.20
2023-07-24T16:13:26.720Z,12.80
2023-07-24T16:15:53.715Z,13.95
2023-07-24T16:18:24.504Z,11.80
2023-07-24T16:20:51.336Z,10.68
2023-07-24T16:23:18.103Z,13.23
